createdAt,value
2019-05-10T00:00:34.465Z,1.97
2019-05-10T00:03:20.727Z,2.07
2019-05-10T00:06:07.848Z,1.73
2019-05-10T00:08:44.637Z,2.23
2019-05-10T00:11:33.273Z,1.97
2019-05-10T00:14:33.378Z,2.10
2019-05-10T00:17:08.466Z,2.10
2019-05-10T00:19:37.306Z,2.00
2019-05-10T00:22:05.030Z,2.00
2019-05-10T00:24:33.319Z,2.20
2019-05-10T00:27:01.811Z,2.00
2019-05-10T00:29:30.047Z,2.00
2019-05-10T00:31:58.622Z,2.13
2019-05-10T00:34:27.353Z,2.10
2019-05-10T00:36:56.065Z,2.40
2019-05-10T00:39:24.737Z,2.30
2019-05-10T00:41:53.551Z,2.80
2019-05-10T00:44:22.313Z,2.57
2019-05-10T00:46:50.762Z,2.40
2019-05-10T00:49:18.939Z,2.50
2019-05-10T00:51:47.736Z,2.80
2019-05-10T00:54:15.713Z,2.90
2019-05-10T00:56:43.275Z,2.50
2019-05-10T00:59:11.148Z,2.30
2019-05-10T01:01:39.623Z,2.27
2019-05-10T01:04:08.417Z,2.43
2019-05-10T01:06:36.966Z,2.50
2019-05-10T01:09:06.463Z,2.60
2019-05-10T01:11:35.023Z,2.97
2019-05-10T01:14:03.798Z,2.67
2019-05-10T01:16:32.488Z,2.80
2019-05-10T01:19:00.881Z,2.67
2019-05-10T01:21:28.638Z,2.70
2019-05-10T01:23:56.863Z,2.77
2019-05-10T01:26:25.002Z,3.00
2019-05-10T01:28:52.574Z,2.57
2019-05-10T01:31:21.152Z,2.80
2019-05-10T01:33:49.032Z,3.07
2019-05-10T01:36:17.310Z,4.30
2019-05-10T01:38:45.188Z,2.90
2019-05-10T01:41:13.053Z,3.97
2019-05-10T01:43:41.702Z,2.70
2019-05-10T01:46:10.158Z,3.30
2019-05-10T01:48:38.390Z,3.50
2019-05-10T01:51:06.709Z,2.83
2019-05-10T01:53:35.262Z,3.37
2019-05-10T01:56:03.482Z,3.20
2019-05-10T01:58:31.828Z,3.60
2019-05-10T02:01:00.660Z,3.97
2019-05-10T02:03:29.396Z,3.63
2019-05-10T02:05:57.727Z,3.53
2019-05-10T02:08:25.583Z,3.63
2019-05-10T02:10:53.870Z,3.37
2019-05-10T02:13:22.096Z,3.70
2019-05-10T02:15:50.392Z,3.67
2019-05-10T02:18:18.842Z,3.60
2019-05-10T02:20:47.263Z,4.47
2019-05-10T02:23:15.986Z,5.93
2019-05-10T02:25:45.178Z,3.30
2019-05-10T02:28:13.866Z,2.80
2019-05-10T02:30:41.897Z,2.60
2019-05-10T02:33:10.071Z,2.90
2019-05-10T02:35:38.354Z,2.40
2019-05-10T02:38:05.920Z,2.80
2019-05-10T02:40:34.699Z,2.47
2019-05-10T02:43:02.983Z,2.77
2019-05-10T02:45:30.952Z,2.43
2019-05-10T02:47:59.527Z,2.43
2019-05-10T02:50:27.826Z,2.43
2019-05-10T02:52:56.205Z,2.90
2019-05-10T02:55:25.002Z,2.50
2019-05-10T02:57:54.988Z,2.07
2019-05-10T03:00:23.868Z,2.50
2019-05-10T03:02:52.755Z,2.10
2019-05-10T03:05:21.157Z,2.37
2019-05-10T03:07:52.250Z,2.83
2019-05-10T03:10:20.309Z,2.87
2019-05-10T03:12:49.938Z,2.70
2019-05-10T03:15:18.026Z,2.80
2019-05-10T03:17:47.051Z,2.83
2019-05-10T03:20:16.107Z,3.50
2019-05-10T03:22:44.810Z,2.43
2019-05-10T03:25:13.468Z,3.17
2019-05-10T03:27:41.816Z,2.80
2019-05-10T03:30:10.096Z,2.70
2019-05-10T03:32:38.108Z,2.90
2019-05-10T03:35:07.219Z,3.37
2019-05-10T03:37:35.732Z,2.80
2019-05-10T03:40:05.209Z,2.87
2019-05-10T03:42:33.278Z,2.80
2019-05-10T03:45:01.605Z,3.57
2019-05-10T03:47:29.955Z,3.03
2019-05-10T03:49:58.681Z,4.10
2019-05-10T03:52:27.155Z,3.17
2019-05-10T03:54:55.455Z,3.83
2019-05-10T03:57:23.753Z,3.10
2019-05-10T03:59:52.328Z,2.70
2019-05-10T04:02:20.704Z,2.43
2019-05-10T04:04:48.994Z,2.57
2019-05-10T04:07:17.386Z,2.90
2019-05-10T04:09:45.634Z,2.90
2019-05-10T04:12:14.239Z,3.37
2019-05-10T04:14:42.873Z,4.00
2019-05-10T04:17:11.217Z,4.20
2019-05-10T04:19:39.562Z,6.70
2019-05-10T04:22:08.177Z,5.83
2019-05-10T04:24:36.855Z,9.07
2019-05-10T04:27:05.270Z,3.77
2019-05-10T04:29:33.545Z,2.80
2019-05-10T04:32:01.709Z,2.40
2019-05-10T04:34:29.579Z,2.60
2019-05-10T04:36:57.816Z,2.40
2019-05-10T04:39:25.370Z,2.40
2019-05-10T04:41:53.942Z,2.80
2019-05-10T04:44:22.166Z,2.37
2019-05-10T04:46:50.754Z,2.93
2019-05-10T04:49:19.629Z,2.93
2019-05-10T04:51:47.875Z,2.83
2019-05-10T04:54:15.835Z,2.53
2019-05-10T04:56:44.201Z,2.60
2019-05-10T04:59:11.699Z,3.70
2019-05-10T05:01:40.273Z,3.27
2019-05-10T05:04:08.608Z,4.60
2019-05-10T05:06:37.109Z,4.10
2019-05-10T05:09:06.831Z,3.87
2019-05-10T05:11:34.388Z,7.70
2019-05-10T05:14:02.637Z,3.97
2019-05-10T05:16:31.209Z,3.70
2019-05-10T05:18:59.481Z,3.50
2019-05-10T05:21:28.046Z,3.63
2019-05-10T05:23:56.255Z,4.40
2019-05-10T05:26:24.852Z,3.93
2019-05-10T05:28:53.235Z,3.30
2019-05-10T05:31:21.206Z,3.23
2019-05-10T05:33:49.477Z,3.23
2019-05-10T05:36:17.792Z,3.33
2019-05-10T05:38:47.344Z,2.87
2019-05-10T05:41:15.869Z,3.30
2019-05-10T05:43:46.341Z,3.40
2019-05-10T05:46:14.771Z,3.57
2019-05-10T05:48:43.371Z,2.90
2019-05-10T05:51:12.079Z,5.53
2019-05-10T05:53:42.370Z,4.50
2019-05-10T05:56:14.222Z,4.80
2019-05-10T05:58:44.455Z,3.70
2019-05-10T06:01:10.888Z,4.13
2019-05-10T06:03:39.543Z,6.70
2019-05-10T06:06:15.481Z,6.50
2019-05-10T06:08:38.517Z,6.17
2019-05-10T06:11:09.163Z,5.13
2019-05-10T06:13:36.977Z,4.33
2019-05-10T06:16:06.719Z,4.43
2019-05-10T06:18:36.126Z,5.53
2019-05-10T06:21:04.553Z,6.77
2019-05-10T06:23:35.104Z,5.13
2019-05-10T06:26:03.284Z,4.37
2019-05-10T06:28:56.886Z,3.80
2019-05-10T06:31:01.567Z,5.13
2019-05-10T06:33:29.895Z,4.67
2019-05-10T06:35:58.186Z,4.17
2019-05-10T06:38:26.109Z,4.40
2019-05-10T06:40:54.567Z,4.67
2019-05-10T06:43:22.829Z,5.00
2019-05-10T06:45:52.296Z,5.20
2019-05-10T06:48:27.386Z,5.63
2019-05-10T06:50:51.923Z,7.70
2019-05-10T06:53:23.170Z,15.53
2019-05-10T06:55:51.067Z,8.93
2019-05-10T06:58:20.342Z,6.10
2019-05-10T07:00:48.939Z,5.60
2019-05-10T07:03:17.849Z,5.10
2019-05-10T07:05:45.711Z,6.10
2019-05-10T07:08:20.149Z,5.77
2019-05-10T07:10:44.769Z,5.37
2019-05-10T07:13:13.154Z,5.20
2019-05-10T07:15:42.639Z,4.80
2019-05-10T07:18:16.931Z,4.57
2019-05-10T07:20:43.271Z,4.50
2019-05-10T07:23:11.934Z,4.23
2019-05-10T07:25:43.731Z,3.73
2019-05-10T07:28:15.902Z,3.60
2019-05-10T07:30:41.783Z,3.27
2019-05-10T07:33:09.898Z,3.03
2019-05-10T07:35:38.801Z,2.50
2019-05-10T07:38:06.868Z,2.70
2019-05-10T07:40:34.838Z,2.23
2019-05-10T07:43:03.002Z,2.00
2019-05-10T07:45:31.352Z,2.00
2019-05-10T07:48:02.424Z,1.80
2019-05-10T07:50:30.328Z,1.80
2019-05-10T07:52:59.162Z,1.90
2019-05-10T07:55:29.819Z,1.77
2019-05-10T07:57:59.195Z,1.50
2019-05-10T08:00:27.933Z,1.40
2019-05-10T08:03:07.501Z,1.50
2019-05-10T08:05:29.201Z,1.90
2019-05-10T08:07:58.816Z,1.73
2019-05-10T08:10:28.972Z,1.70
2019-05-10T08:12:59.515Z,1.67
2019-05-10T08:15:30.513Z,2.00
2019-05-10T08:17:58.749Z,1.70
2019-05-10T08:20:41.414Z,1.87
2019-05-10T08:22:57.168Z,2.30
2019-05-10T08:25:29.094Z,2.27
2019-05-10T08:27:55.638Z,1.87
2019-05-10T08:30:42.701Z,2.03
2019-05-10T08:33:10.947Z,2.27
2019-05-10T08:35:39.240Z,1.97
2019-05-10T08:38:08.103Z,2.13
2019-05-10T08:40:37.972Z,2.20
2019-05-10T08:43:08.905Z,2.20
2019-05-10T08:45:38.915Z,2.30
2019-05-10T08:48:07.320Z,2.33
2019-05-10T08:50:49.737Z,2.83
2019-05-10T08:53:10.717Z,2.50
2019-05-10T08:55:35.873Z,2.43
2019-05-10T08:58:04.500Z,3.27
2019-05-10T09:00:45.643Z,3.40
2019-05-10T09:03:09.275Z,6.47
2019-05-10T09:05:34.091Z,3.30
2019-05-10T09:08:05.497Z,3.17
2019-05-10T09:10:32.569Z,3.40
2019-05-10T09:13:03.248Z,2.80
2019-05-10T09:15:33.040Z,2.80
2019-05-10T09:18:04.144Z,3.10
2019-05-10T09:20:32.020Z,4.80
2019-05-10T09:23:02.391Z,2.63
2019-05-10T09:25:31.572Z,2.70
2019-05-10T09:28:02.480Z,2.70
2019-05-10T09:30:35.360Z,2.90
2019-05-10T09:33:08.515Z,2.27
2019-05-10T09:35:32.981Z,2.70
2019-05-10T09:38:02.102Z,2.50
2019-05-10T09:40:32.651Z,2.33
2019-05-10T09:43:14.868Z,3.20
2019-05-10T09:45:43.309Z,2.40
2019-05-10T09:48:12.283Z,2.27
2019-05-10T09:50:46.301Z,2.67
2019-05-10T09:53:15.141Z,3.67
2019-05-10T09:55:45.434Z,2.50
2019-05-10T09:58:11.169Z,3.00
2019-05-10T10:00:39.140Z,2.50
2019-05-10T10:03:08.190Z,2.93
2019-05-10T10:05:39.814Z,2.80
2019-05-10T10:08:09.244Z,3.00
2019-05-10T10:10:37.301Z,2.60
2019-05-10T10:13:13.528Z,2.30
2019-05-10T10:15:37.286Z,3.87
2019-05-10T10:18:05.828Z,2.77
2019-05-10T10:20:36.042Z,2.87
2019-05-10T10:23:07.017Z,3.37
2019-05-10T10:25:40.390Z,2.83
2019-05-10T10:28:10.370Z,2.10
2019-05-10T10:30:37.375Z,2.20
2019-05-10T10:33:10.499Z,2.30
2019-05-10T10:35:37.829Z,2.20
2019-05-10T10:38:07.762Z,3.00
2019-05-10T10:40:44.201Z,2.70
2019-05-10T10:43:07.457Z,2.97
2019-05-10T10:45:37.678Z,2.90
2019-05-10T10:48:08.440Z,3.07
2019-05-10T10:50:36.526Z,3.20
2019-05-10T10:53:07.807Z,3.00
2019-05-10T10:55:37.790Z,3.13
2019-05-10T10:58:07.369Z,3.20
2019-05-10T11:00:38.995Z,3.10
2019-05-10T11:03:05.899Z,2.63
2019-05-10T11:05:34.302Z,2.80
2019-05-10T11:08:02.682Z,2.70
2019-05-10T11:10:31.452Z,3.60
2019-05-10T11:13:02.951Z,3.10
2019-05-10T11:15:35.989Z,2.80
2019-05-10T11:18:00.656Z,2.80
2019-05-10T11:20:31.510Z,2.97
2019-05-10T11:22:59.440Z,4.20
2019-05-10T11:25:27.302Z,3.10
2019-05-10T11:27:58.596Z,4.20
2019-05-10T11:30:25.688Z,3.73
2019-05-10T11:32:53.987Z,4.20
2019-05-10T11:35:30.228Z,5.77
2019-05-10T11:37:53.206Z,3.40
2019-05-10T11:40:30.560Z,3.43
2019-05-10T11:42:51.251Z,4.20
2019-05-10T11:45:20.902Z,3.47
2019-05-10T11:47:54.476Z,3.50
2019-05-10T11:50:28.881Z,3.47
2019-05-10T11:52:51.329Z,6.10
2019-05-10T11:58:01.536Z,3.63
2019-05-10T11:59:03.906Z,3.37
2019-05-10T12:00:28.534Z,3.40
2019-05-10T12:03:12.628Z,3.00
2019-05-10T12:05:26.310Z,2.77
2019-05-10T12:07:54.699Z,3.10
2019-05-10T12:10:25.682Z,4.30
2019-05-10T12:13:06.145Z,2.43
2019-05-10T12:17:58.862Z,2.70
2019-05-10T12:20:39.546Z,2.30
2019-05-10T12:22:54.181Z,3.30
2019-05-10T12:25:42.520Z,2.93
2019-05-10T12:26:06.530Z,2.37
2019-05-10T12:27:52.758Z,2.80
2019-05-10T12:30:21.656Z,3.40
2019-05-10T12:33:05.830Z,3.30
2019-05-10T12:35:21.399Z,5.83
2019-05-10T12:37:54.269Z,3.63
2019-05-10T12:40:23.831Z,4.23
2019-05-10T12:42:51.192Z,2.90
2019-05-10T12:45:22.897Z,3.10
2019-05-10T12:47:51.852Z,2.43
2019-05-10T12:50:21.367Z,2.40
2019-05-10T12:53:01.956Z,1.93
2019-05-10T12:55:19.500Z,1.53
2019-05-10T12:57:47.492Z,2.03
2019-05-10T13:00:16.320Z,2.40
2019-05-10T13:02:51.433Z,2.10
2019-05-10T13:05:16.058Z,2.00
2019-05-10T13:07:44.792Z,2.20
2019-05-10T13:10:13.286Z,1.40
2019-05-10T13:12:44.367Z,1.60
2019-05-10T13:15:11.843Z,1.17
2019-05-10T13:17:44.127Z,1.53
2019-05-10T13:20:10.943Z,1.07
2019-05-10T13:22:39.676Z,1.60
2019-05-10T13:25:08.410Z,1.00
2019-05-10T13:27:36.604Z,1.10
2019-05-10T13:30:05.142Z,1.23
2019-05-10T13:32:33.419Z,0.90
2019-05-10T13:35:01.784Z,0.83
2019-05-10T13:37:30.103Z,1.20
2019-05-10T13:40:05.051Z,0.80
2019-05-10T13:42:28.614Z,1.07
2019-05-10T13:44:57.418Z,1.20
2019-05-10T13:47:25.680Z,0.90
2019-05-10T13:49:53.868Z,1.20
2019-05-10T13:52:22.645Z,1.07
2019-05-10T13:54:50.220Z,1.17
2019-05-10T13:57:18.499Z,1.40
2019-05-10T13:59:48.807Z,1.20
2019-05-10T14:02:22.974Z,0.90
2019-05-10T14:04:47.030Z,1.10
2019-05-10T14:07:15.719Z,1.15
2019-05-10T14:09:44.244Z,1.57
2019-05-10T14:12:16.221Z,1.60
2019-05-10T14:14:42.673Z,1.00
2019-05-10T14:17:10.663Z,1.30
2019-05-10T14:19:39.345Z,1.40
2019-05-10T14:22:07.979Z,1.87
2019-05-10T14:24:36.230Z,1.30
2019-05-10T14:27:04.583Z,1.30
2019-05-10T14:29:36.445Z,1.73
2019-05-10T14:32:02.976Z,1.30
2019-05-10T14:34:31.268Z,1.40
2019-05-10T14:36:59.614Z,1.40
2019-05-10T14:39:27.608Z,1.40
2019-05-10T14:41:56.219Z,1.60
2019-05-10T14:44:25.034Z,3.13
2019-05-10T14:46:53.559Z,2.20
2019-05-10T14:49:21.808Z,1.30
2019-05-10T14:51:59.098Z,1.20
2019-05-10T14:54:22.915Z,2.40
2019-05-10T14:56:53.912Z,1.40
2019-05-10T14:59:21.514Z,2.00
2019-05-10T15:01:50.222Z,3.90
2019-05-10T15:04:43.847Z,2.20
2019-05-10T15:06:49.325Z,1.67
2019-05-10T15:09:21.740Z,2.40
2019-05-10T15:11:48.392Z,1.60
2019-05-10T15:14:16.851Z,1.47
2019-05-10T15:16:45.291Z,1.70
2019-05-10T15:19:14.235Z,1.90
2019-05-10T15:21:42.836Z,1.37
2019-05-10T15:24:10.734Z,1.90
2019-05-10T15:26:43.839Z,1.93
2019-05-10T15:29:15.202Z,2.03
2019-05-10T15:31:40.123Z,1.87
2019-05-10T15:34:08.930Z,2.60
2019-05-10T15:36:36.906Z,3.20
2019-05-10T15:39:06.583Z,2.30
2019-05-10T15:41:34.880Z,2.40
2019-05-10T15:44:03.838Z,3.20
2019-05-10T15:46:39.538Z,3.20
2019-05-10T15:49:01.988Z,4.47
2019-05-10T15:51:36.312Z,4.40
2019-05-10T15:54:04.966Z,3.73
2019-05-10T15:56:35.481Z,3.70
2019-05-10T15:59:02.376Z,2.60
2019-05-10T16:01:30.279Z,3.50
2019-05-10T16:03:58.187Z,3.83
2019-05-10T16:06:26.581Z,2.40
2019-05-10T16:08:54.865Z,2.17
2019-05-10T16:11:23.038Z,2.17
2019-05-10T16:13:54.825Z,2.60
2019-05-10T16:16:21.991Z,2.10
2019-05-10T16:18:50.374Z,2.30
2019-05-10T16:21:18.739Z,4.40
2019-05-10T16:23:48.358Z,2.20
2019-05-10T16:26:17.617Z,1.90
2019-05-10T16:28:46.586Z,1.90
2019-05-10T16:31:14.763Z,2.20
2019-05-10T16:33:42.733Z,3.50
2019-05-10T16:36:10.999Z,2.20
2019-05-10T16:38:38.954Z,2.63
2019-05-10T16:41:06.979Z,2.53
2019-05-10T16:43:35.769Z,2.77
2019-05-10T16:46:04.502Z,2.10
2019-05-10T16:48:32.738Z,2.20
2019-05-10T16:51:03.737Z,2.30
2019-05-10T16:53:31.534Z,2.50
2019-05-10T16:56:00.242Z,2.30
2019-05-10T16:58:28.134Z,2.70
2019-05-10T17:00:56.083Z,2.07
2019-05-10T17:03:24.448Z,2.60
2019-05-10T17:05:53.869Z,2.10
2019-05-10T17:08:22.704Z,3.10
2019-05-10T17:10:51.471Z,7.17
2019-05-10T17:13:20.261Z,3.10
2019-05-10T17:15:48.955Z,3.47
2019-05-10T17:18:20.315Z,3.40
2019-05-10T17:20:50.715Z,2.80
2019-05-10T17:23:20.137Z,2.13
2019-05-10T17:25:48.879Z,3.30
2019-05-10T17:28:18.210Z,3.80
2019-05-10T17:30:48.329Z,4.70
2019-05-10T17:33:18.275Z,3.50
2019-05-10T17:35:47.366Z,3.47
2019-05-10T17:38:16.378Z,2.60
2019-05-10T17:40:48.067Z,3.00
2019-05-10T17:43:20.919Z,3.07
2019-05-10T17:45:47.795Z,3.70
2019-05-10T17:48:16.214Z,3.70
2019-05-10T17:50:45.963Z,2.80
2019-05-10T17:53:15.997Z,2.83
2019-05-10T17:55:49.164Z,2.30
2019-05-10T17:58:17.245Z,2.43
2019-05-10T18:00:45.135Z,2.57
2019-05-10T18:03:14.194Z,2.50
2019-05-10T18:05:46.862Z,2.27
2019-05-10T18:08:15.504Z,2.37
2019-05-10T18:10:44.289Z,2.10
2019-05-10T18:13:12.651Z,2.23
2019-05-10T18:15:40.911Z,1.97
2019-05-10T18:18:09.299Z,2.33
2019-05-10T18:20:42.256Z,1.93
2019-05-10T18:23:07.637Z,2.30
2019-05-10T18:25:35.634Z,2.20
2019-05-10T18:28:03.967Z,2.27
2019-05-10T18:30:32.650Z,1.90
2019-05-10T18:33:01.140Z,2.27
2019-05-10T18:35:28.695Z,2.03
2019-05-10T18:37:59.518Z,1.90
2019-05-10T18:40:31.564Z,2.10
2019-05-10T18:43:03.147Z,2.23
2019-05-10T18:45:29.823Z,2.10
2019-05-10T18:47:58.043Z,2.13
2019-05-10T18:50:25.941Z,2.20
2019-05-10T18:52:54.521Z,2.20
2019-05-10T18:55:23.158Z,2.40
2019-05-10T18:57:52.616Z,2.60
2019-05-10T19:00:23.257Z,5.83
2019-05-10T19:02:55.098Z,7.40
2019-05-10T19:05:25.172Z,11.30
2019-05-10T19:08:03.077Z,15.63
2019-05-10T19:10:22.645Z,15.17
2019-05-10T19:12:59.504Z,14.00
2019-05-10T19:15:20.331Z,12.07
2019-05-10T19:17:49.072Z,7.93
2019-05-10T19:20:18.479Z,5.97
2019-05-10T19:22:46.941Z,3.50
2019-05-10T19:25:15.705Z,3.47
2019-05-10T19:27:49.975Z,3.47
2019-05-10T19:30:19.977Z,3.23
2019-05-10T19:32:51.197Z,3.20
2019-05-10T19:35:16.994Z,3.60
2019-05-10T19:37:45.711Z,3.50
2019-05-10T19:40:14.446Z,2.83
2019-05-10T19:42:44.943Z,3.80
2019-05-10T19:45:19.369Z,2.90
2019-05-10T19:47:50.003Z,3.43
2019-05-10T19:50:16.782Z,2.50
2019-05-10T19:52:45.804Z,2.77
2019-05-10T19:55:19.611Z,3.30
2019-05-10T19:57:49.430Z,3.30
2019-05-10T20:00:18.568Z,3.10
2019-05-10T20:02:47.065Z,3.67
2019-05-10T20:05:15.866Z,3.70
2019-05-10T20:07:46.198Z,5.30
2019-05-10T20:10:15.093Z,5.10
2019-05-10T20:12:43.750Z,6.00
2019-05-10T20:15:11.701Z,8.50
2019-05-10T20:17:39.278Z,10.67
2019-05-10T20:20:08.041Z,15.53
2019-05-10T20:22:36.753Z,20.67
2019-05-10T20:25:05.294Z,17.77
2019-05-10T20:27:33.878Z,16.40
2019-05-10T20:30:02.717Z,14.47
2019-05-10T20:32:31.603Z,13.23
2019-05-10T20:35:00.409Z,11.43
2019-05-10T20:37:29.605Z,10.13
2019-05-10T20:39:58.675Z,9.87
2019-05-10T20:42:27.848Z,9.80
2019-05-10T20:45:06.850Z,9.50
2019-05-10T20:47:28.777Z,10.10
2019-05-10T20:49:57.975Z,9.57
2019-05-10T20:52:26.594Z,10.23
2019-05-10T20:54:55.493Z,9.97
2019-05-10T20:57:24.154Z,14.63
2019-05-10T20:59:53.265Z,16.73
2019-05-10T21:02:23.785Z,9.87
2019-05-10T21:04:52.074Z,12.67
2019-05-10T21:07:20.699Z,11.13
2019-05-10T21:09:49.435Z,10.87
2019-05-10T21:12:17.881Z,9.83
2019-05-10T21:14:45.934Z,8.97
2019-05-10T21:17:14.800Z,9.20
2019-05-10T21:19:43.634Z,8.73
2019-05-10T21:22:11.629Z,8.17
2019-05-10T21:24:39.188Z,7.40
2019-05-10T21:27:07.565Z,7.17
2019-05-10T21:29:36.374Z,8.87
2019-05-10T21:32:04.927Z,14.13
2019-05-10T21:34:33.723Z,10.83
2019-05-10T21:37:01.934Z,8.10
2019-05-10T21:39:30.309Z,7.40
2019-05-10T21:41:58.559Z,8.57
2019-05-10T21:44:27.179Z,19.93
2019-05-10T21:46:55.997Z,20.43
2019-05-10T21:49:24.781Z,13.37
2019-05-10T21:51:53.500Z,7.27
2019-05-10T21:54:21.440Z,8.07
2019-05-10T21:56:49.829Z,10.00
2019-05-10T21:59:18.616Z,8.93
2019-05-10T22:01:46.764Z,5.93
2019-05-10T22:04:15.604Z,6.73
2019-05-10T22:06:44.153Z,6.40
2019-05-10T22:09:12.870Z,7.50
2019-05-10T22:11:40.871Z,8.53
2019-05-10T22:14:09.604Z,15.80
2019-05-10T22:16:38.188Z,17.30
2019-05-10T22:19:05.913Z,11.97
2019-05-10T22:21:33.765Z,7.63
2019-05-10T22:24:02.090Z,8.10
2019-05-10T22:26:30.455Z,8.53
2019-05-10T22:28:59.075Z,7.50
2019-05-10T22:31:27.814Z,5.90
2019-05-10T22:33:55.699Z,6.00
2019-05-10T22:36:23.970Z,5.77
2019-05-10T22:39:05.783Z,5.90
2019-05-10T22:41:21.199Z,5.20
2019-05-10T22:43:49.035Z,5.27
2019-05-10T22:46:16.594Z,5.83
2019-05-10T22:48:44.795Z,5.53
2019-05-10T22:51:12.970Z,5.30
2019-05-10T22:53:41.222Z,4.93
2019-05-10T22:56:09.064Z,4.53
2019-05-10T22:58:37.315Z,5.40
2019-05-10T23:01:05.447Z,5.40
2019-05-10T23:03:33.859Z,5.47
2019-05-10T23:06:02.219Z,4.77
2019-05-10T23:08:30.619Z,4.77
2019-05-10T23:10:59.207Z,4.53
2019-05-10T23:13:28.100Z,4.50
2019-05-10T23:15:56.380Z,5.60
2019-05-10T23:18:25.080Z,5.20
2019-05-10T23:20:53.354Z,5.73
2019-05-10T23:23:21.629Z,7.60
2019-05-10T23:25:49.505Z,6.67
2019-05-10T23:28:18.048Z,6.57
2019-05-10T23:30:46.395Z,7.33
2019-05-10T23:33:14.660Z,6.93
2019-05-10T23:35:42.564Z,6.50
2019-05-10T23:38:10.518Z,5.20
2019-05-10T23:40:39.110Z,5.20
2019-05-10T23:43:07.678Z,4.67
2019-05-10T23:45:36.416Z,5.13
2019-05-10T23:48:05.170Z,4.97
2019-05-10T23:50:33.380Z,5.50
2019-05-10T23:53:00.939Z,5.20
2019-05-10T23:55:29.364Z,4.97
2019-05-10T23:57:57.288Z,5.07
